Archival Weather

Chicago O'Hare International

Chicago, Illinois (KORD)

Report from: Tuesday, December 13, 2022 9:51 AM CST
Current time: Monday, June 24, 2024 4:34 AM CDT

Current weather – Weather history – Daily summaries
Weather forecast

Temperature2.8°C (37.0°F)
Wind chill-2.0°C (28.5°F)
Dew point-1.7°C (28.9°F)
Winds 12 kts (6.2 m/s, 13.8 mph) Southeast (130°)
Visibility10 mi. (16.1 km)
Clouds Ceiling: Overcast 1,900 ft. (579 m)
Altimeter30.23 in.Hg (1024 mB)
Relative humidity72 %
Density altitude-1,770 ft. (-540 m)
Sea-level pressure102.4 kPa (1024 mB, 30.24 in.Hg)
Remarks Automated weather observing station with precipitation discriminator
Flight conditions Marginal Visual Meteorological Conditions
Raw dataKORD 131551Z 13012KT 10SM OVC019 03/M02 A3023 RMK AO2 SLP242 T00281017
An error has occurred. This application may no longer respond until reloaded. Reload 🗙